Thursday, October 19, 2017, 6:58 AM EDT
Back to Local

KCKB, Harrison/marion Regional

Location: Bridgeport, WV, United States Lat: 39.3
Local Time: 6:58 AM EDT (10:58 GMT) Lon: -80.217
Time Zone: US/Eastern Elev: 1204 ft

Show me the last for .
Show Decoded

2017-10-19 05:53 METAR KCKB 190953Z 00000KT 10SM CLR 04/03 A3025 RMK AO2 SLP240 T00440028 =
2017-10-19 04:53 METAR KCKB 190853Z 00000KT 10SM CLR 04/03 A3025 RMK AO2 SLP237 T00440028 53001 =
2017-10-19 03:53 METAR KCKB 190753Z 00000KT 10SM CLR 05/03 A3024 RMK AO2 SLP235 T00500033 =
2017-10-19 02:53 METAR KCKB 190653Z 00000KT 10SM CLR 06/04 A3024 RMK AO2 SLP234 T00560039 =
2017-10-19 01:53 METAR KCKB 190553Z 00000KT 10SM CLR 07/04 A3024 RMK AO2 SLP235 T00670039 10144
                 20061 55004 =
2017-10-19 00:53 METAR KCKB 190453Z 00000KT 10SM CLR 08/04 A3024 RMK AO2 SLP234 T00780039
                 402220017 =
2017-10-18 23:53 METAR KCKB 190353Z 00000KT 10SM CLR 07/03 A3024 RMK AO2 SLP237 T00720033 =
2017-10-18 22:53 METAR KCKB 190253Z 00000KT 10SM CLR 09/05 A3025 RMK AO2 SLP240 T00940050 51003 =
2017-10-18 21:53 METAR KCKB 190153Z 00000KT 10SM CLR 11/04 A3025 RMK AO2 SLP241 T01060044 =
2017-10-18 20:53 METAR KCKB 190053Z 00000KT 10SM CLR 11/03 A3025 RMK AO2 SLP242 T01110033 =
2017-10-18 19:53 METAR KCKB 182353Z 00000KT 10SM CLR 15/02 A3024 RMK AO2 SLP240 T01500017 10222
                 20139 53001 =
2017-10-18 18:53 METAR KCKB 182253Z 22003KT 10SM CLR 18/M01 A3024 RMK AO2 SLP237 T01831006 =
2017-10-18 17:53 METAR KCKB 182153Z 21004KT 10SM CLR 20/00 A3024 RMK AO2 SLP235 T02000000 =
2017-10-18 16:53 METAR KCKB 182053Z 20006KT 10SM CLR 22/M01 A3024 RMK AO2 SLP236 T02171011 56019
                 =
2017-10-18 15:53 METAR KCKB 181953Z 22004KT 10SM CLR 21/M01 A3026 RMK AO2 SLP240 T02111011 =
2017-10-18 14:53 METAR KCKB 181853Z 23008KT 10SM CLR 22/02 A3028 RMK AO2 SLP246 T02170017 =
2017-10-18 13:53 METAR KCKB 181753Z 00000KT 10SM CLR 20/02 A3030 RMK AO2 SLP255 T02000022 10206
                 20022 58021 =
2017-10-18 12:53 METAR KCKB 181653Z 10SM CLR 19/04 A3033 RMK AO2 SLP265 T01890044 =
2017-10-18 11:53 METAR KCKB 181553Z 07005KT 10SM CLR 17/06 A3035 RMK AO2 SLP275 T01670056 =
2017-10-18 10:53 METAR KCKB 181453Z 00000KT 10SM CLR 13/07 A3036 RMK AO2 SLP280 T01330067 50004 =
2017-10-18 09:53 METAR KCKB 181353Z 00000KT 10SM CLR 10/06 A3037 RMK AO2 SLP282 T01000056 =
2017-10-18 08:53 METAR KCKB 181253Z 00000KT 10SM CLR 06/03 A3037 RMK AO2 SLP284 T00610033 =
2017-10-18 07:53 METAR KCKB 181153Z 00000KT 8SM CLR 02/01 A3035 RMK AO2 SLP279 I6000 T00220011
                 10044 20017 53007 =

Support USWX by starting your Amazon purchase here.